createdAt,value
2017-06-27T00:00:34.553Z,20.41
2017-06-27T00:03:02.067Z,20.16
2017-06-27T00:05:29.673Z,20.16
2017-06-27T00:07:57.188Z,20.29
2017-06-27T00:10:24.861Z,20.25
2017-06-27T00:12:52.369Z,20.13
2017-06-27T00:15:19.905Z,20.16
2017-06-27T00:17:47.443Z,20.27
2017-06-27T00:20:14.960Z,20.20
2017-06-27T00:22:42.511Z,20.20
2017-06-27T00:25:10.044Z,20.09
2017-06-27T00:27:37.645Z,20.07
2017-06-27T00:30:05.167Z,20.20
2017-06-27T00:32:32.887Z,19.97
2017-06-27T00:35:00.404Z,19.91
2017-06-27T00:37:27.907Z,20.10
2017-06-27T00:39:55.467Z,20.02
2017-06-27T00:42:22.987Z,19.98
2017-06-27T00:44:50.538Z,19.99
2017-06-27T00:47:18.047Z,20.02
2017-06-27T00:49:45.710Z,19.95
2017-06-27T00:52:13.218Z,20.46
2017-06-27T00:54:40.722Z,20.25
2017-06-27T00:57:08.272Z,19.98
2017-06-27T00:59:35.808Z,20.00
2017-06-27T01:02:03.370Z,20.48
2017-06-27T01:04:30.883Z,20.32
2017-06-27T01:06:58.644Z,20.11
2017-06-27T01:09:26.150Z,19.99
2017-06-27T01:11:53.659Z,19.86
2017-06-27T01:14:21.210Z,19.84
2017-06-27T01:16:48.737Z,19.92
2017-06-27T01:19:16.419Z,19.89
2017-06-27T01:21:44.007Z,19.85
2017-06-27T01:24:11.567Z,19.92
2017-06-27T01:26:39.196Z,19.94
2017-06-27T01:29:06.754Z,19.89
2017-06-27T01:31:34.287Z,19.84
2017-06-27T01:34:01.988Z,19.79
2017-06-27T01:36:29.504Z,19.71
2017-06-27T01:38:57.210Z,19.69
2017-06-27T01:41:24.720Z,19.65
2017-06-27T01:43:52.254Z,19.60
2017-06-27T01:46:19.794Z,19.74
2017-06-27T01:48:47.410Z,19.73
2017-06-27T01:51:15.010Z,19.87
2017-06-27T01:53:42.518Z,19.73
2017-06-27T01:56:10.065Z,19.69
2017-06-27T01:58:37.874Z,19.75
2017-06-27T02:01:05.378Z,19.69
2017-06-27T02:03:32.927Z,19.69
2017-06-27T02:06:00.440Z,20.16
2017-06-27T02:08:27.991Z,19.90
2017-06-27T02:10:55.535Z,19.72
2017-06-27T02:13:23.319Z,19.66
2017-06-27T02:15:50.860Z,19.72
2017-06-27T02:18:18.366Z,19.89
2017-06-27T02:20:45.938Z,19.66
2017-06-27T02:23:13.447Z,19.56
2017-06-27T02:25:40.983Z,19.62
2017-06-27T02:28:08.491Z,19.58
2017-06-27T02:30:36.063Z,19.80
2017-06-27T02:33:03.571Z,19.89
2017-06-27T02:35:31.358Z,19.89
2017-06-27T02:37:58.855Z,19.90
2017-06-27T02:40:26.359Z,19.79
2017-06-27T02:42:53.998Z,19.90
2017-06-27T02:45:21.506Z,19.97
2017-06-27T02:47:49.053Z,20.01
2017-06-27T02:50:16.572Z,20.13
2017-06-27T02:52:44.125Z,19.61
2017-06-27T02:55:11.634Z,19.59
2017-06-27T02:57:39.509Z,19.41
2017-06-27T03:00:07.023Z,19.74
2017-06-27T03:02:34.540Z,19.67
2017-06-27T03:05:02.087Z,19.66
2017-06-27T03:07:29.594Z,19.48
2017-06-27T03:09:57.151Z,19.20
2017-06-27T03:12:24.670Z,19.12
2017-06-27T03:14:52.670Z,19.13
2017-06-27T03:17:20.192Z,19.20
2017-06-27T03:19:47.695Z,19.51
2017-06-27T03:22:15.255Z,19.51
2017-06-27T03:24:42.770Z,19.48
2017-06-27T03:27:10.330Z,19.70
2017-06-27T03:29:37.848Z,19.45
2017-06-27T03:32:05.675Z,19.49
2017-06-27T03:34:33.186Z,19.41
2017-06-27T03:37:00.719Z,19.29
2017-06-27T03:39:28.258Z,19.49
2017-06-27T03:41:55.770Z,19.54
2017-06-27T03:44:23.319Z,19.66
2017-06-27T03:46:50.833Z,19.91
2017-06-27T03:49:18.641Z,19.60
2017-06-27T03:51:46.138Z,19.46
2017-06-27T03:54:13.658Z,19.66
2017-06-27T03:56:41.211Z,19.78
2017-06-27T03:59:08.720Z,19.48
2017-06-27T04:01:36.399Z,19.26
2017-06-27T04:04:03.902Z,19.11
2017-06-27T04:06:31.815Z,19.44
2017-06-27T04:08:59.322Z,19.64
2017-06-27T04:11:26.844Z,19.76
2017-06-27T04:13:54.888Z,19.84
2017-06-27T04:16:22.404Z,19.78
2017-06-27T04:18:50.091Z,19.75
2017-06-27T04:21:17.615Z,19.69
2017-06-27T04:23:45.176Z,19.65
2017-06-27T04:26:12.684Z,19.41
2017-06-27T04:28:40.587Z,19.56
2017-06-27T04:31:08.176Z,19.86
2017-06-27T04:33:35.692Z,19.86
2017-06-27T04:36:03.255Z,19.96
2017-06-27T04:38:30.768Z,19.74
2017-06-27T04:40:58.308Z,19.67
2017-06-27T04:43:25.847Z,19.41
2017-06-27T04:45:53.369Z,19.51
2017-06-27T04:48:20.942Z,19.58
2017-06-27T04:50:48.448Z,19.50
2017-06-27T04:53:15.995Z,19.31
2017-06-27T04:55:43.534Z,19.39
2017-06-27T04:58:11.061Z,19.33
2017-06-27T05:00:38.574Z,19.76
2017-06-27T05:03:06.168Z,19.56
2017-06-27T05:05:33.686Z,19.75
2017-06-27T05:08:01.202Z,19.57
2017-06-27T05:10:28.771Z,19.72
2017-06-27T05:12:56.343Z,19.74
2017-06-27T05:15:23.907Z,20.05
2017-06-27T05:17:51.428Z,20.18
2017-06-27T05:20:18.959Z,20.27
2017-06-27T05:22:46.455Z,20.25
2017-06-27T05:25:14.006Z,20.33
2017-06-27T05:27:41.651Z,20.36
2017-06-27T05:30:09.215Z,20.43
2017-06-27T05:32:36.736Z,20.41
2017-06-27T05:35:04.296Z,20.52
2017-06-27T05:37:31.857Z,20.45
2017-06-27T05:39:59.371Z,20.40
2017-06-27T05:42:26.931Z,20.44
2017-06-27T05:44:54.431Z,20.61
2017-06-27T05:47:21.987Z,20.77
2017-06-27T05:49:49.511Z,20.79
2017-06-27T05:52:17.204Z,21.07
2017-06-27T05:54:44.700Z,20.94
2017-06-27T05:57:12.215Z,21.03
2017-06-27T05:59:39.772Z,20.94
2017-06-27T06:02:07.359Z,21.10
2017-06-27T06:04:34.994Z,21.18
2017-06-27T06:07:02.521Z,21.22
2017-06-27T06:09:30.110Z,21.25
2017-06-27T06:11:57.626Z,21.21
2017-06-27T06:14:25.185Z,21.39
2017-06-27T06:16:52.727Z,21.49
2017-06-27T06:19:20.438Z,21.29
2017-06-27T06:21:47.935Z,21.34
2017-06-27T06:24:15.456Z,21.29
2017-06-27T06:26:43.042Z,21.31
2017-06-27T06:29:10.583Z,21.22
2017-06-27T06:31:38.215Z,21.43
2017-06-27T06:34:05.816Z,21.56
2017-06-27T06:36:33.467Z,21.58
2017-06-27T06:39:01.079Z,21.44
2017-06-27T06:41:28.651Z,21.37
2017-06-27T06:43:56.152Z,21.63
2017-06-27T06:46:24.054Z,21.65
2017-06-27T06:48:51.554Z,21.58
2017-06-27T06:51:19.080Z,21.46
2017-06-27T06:53:46.619Z,21.58
2017-06-27T06:56:14.139Z,21.63
2017-06-27T06:58:41.698Z,21.70
2017-06-27T07:01:09.203Z,21.67
2017-06-27T07:03:36.875Z,21.71
2017-06-27T07:06:04.408Z,21.76
2017-06-27T07:08:32.190Z,21.65
2017-06-27T07:10:59.718Z,21.67
2017-06-27T07:13:27.448Z,21.60
2017-06-27T07:15:54.987Z,21.69
2017-06-27T07:18:22.526Z,21.87
2017-06-27T07:20:50.071Z,21.90
2017-06-27T07:23:17.576Z,21.79
2017-06-27T07:25:45.138Z,21.98
2017-06-27T07:28:12.892Z,21.85
2017-06-27T07:30:40.438Z,21.84
2017-06-27T07:33:07.992Z,21.85
2017-06-27T07:35:35.542Z,21.97
2017-06-27T07:38:03.043Z,21.97
2017-06-27T07:40:30.731Z,22.02
2017-06-27T07:42:58.316Z,21.88
2017-06-27T07:45:25.927Z,22.03
2017-06-27T07:47:53.480Z,21.98
2017-06-27T07:50:21.019Z,21.97
2017-06-27T07:52:48.747Z,21.97
2017-06-27T07:55:16.270Z,21.93
2017-06-27T07:57:43.957Z,22.01
2017-06-27T08:00:11.528Z,22.12
2017-06-27T08:02:39.223Z,22.07
2017-06-27T08:05:06.736Z,22.15
2017-06-27T08:07:34.247Z,22.26
2017-06-27T08:10:01.831Z,22.40
2017-06-27T08:12:29.339Z,22.21
2017-06-27T08:14:56.894Z,22.36
2017-06-27T08:17:24.407Z,22.44
2017-06-27T08:19:52.143Z,22.44
2017-06-27T08:22:19.660Z,22.45
2017-06-27T08:24:47.175Z,22.33
2017-06-27T08:27:14.742Z,22.34
2017-06-27T08:29:42.247Z,22.31
2017-06-27T08:32:09.832Z,22.35
2017-06-27T08:34:37.354Z,22.42
2017-06-27T08:37:04.899Z,22.40
2017-06-27T08:39:32.419Z,22.57
2017-06-27T08:41:59.972Z,22.52
2017-06-27T08:44:27.480Z,22.38
2017-06-27T08:46:55.205Z,22.37
2017-06-27T08:49:22.716Z,22.40
2017-06-27T08:51:50.243Z,22.53
2017-06-27T08:54:17.787Z,22.62
2017-06-27T08:56:45.310Z,22.58
2017-06-27T08:59:12.868Z,22.71
2017-06-27T09:01:40.379Z,22.55
2017-06-27T09:04:07.928Z,22.73
2017-06-27T09:06:35.439Z,22.63
2017-06-27T09:09:02.986Z,22.62
2017-06-27T09:11:30.544Z,22.64
2017-06-27T09:13:58.094Z,22.69
2017-06-27T09:16:25.624Z,22.66
2017-06-27T09:18:54.195Z,22.70
2017-06-27T09:21:21.709Z,22.83
2017-06-27T09:23:49.264Z,22.77
2017-06-27T09:26:16.792Z,22.79
2017-06-27T09:28:44.305Z,22.67
2017-06-27T09:31:11.879Z,22.78
2017-06-27T09:33:39.444Z,22.80
2017-06-27T09:36:07.068Z,22.83
2017-06-27T09:38:34.594Z,23.07
2017-06-27T09:41:02.159Z,23.06
2017-06-27T09:43:29.721Z,23.03
2017-06-27T09:45:57.256Z,22.95
2017-06-27T09:48:24.807Z,22.83
2017-06-27T09:50:52.318Z,22.89
2017-06-27T09:53:19.876Z,22.86
2017-06-27T09:55:47.478Z,22.89
2017-06-27T09:58:15.029Z,22.93
2017-06-27T10:00:42.556Z,23.06
2017-06-27T10:03:10.111Z,23.00
2017-06-27T10:05:37.666Z,23.04
2017-06-27T10:08:05.231Z,22.83
2017-06-27T10:10:32.770Z,22.74
2017-06-27T10:13:00.287Z,22.74
2017-06-27T10:15:27.840Z,22.79
2017-06-27T10:17:55.345Z,22.94
2017-06-27T10:20:22.886Z,22.94
2017-06-27T10:22:50.407Z,23.02
2017-06-27T10:25:17.979Z,23.00
2017-06-27T10:27:45.596Z,23.15
2017-06-27T10:30:13.256Z,23.10
2017-06-27T10:32:40.867Z,23.08
2017-06-27T10:35:08.407Z,23.17
2017-06-27T10:37:35.936Z,23.17
2017-06-27T10:40:03.512Z,23.42
2017-06-27T10:42:31.084Z,23.36
2017-06-27T10:44:58.686Z,23.37
2017-06-27T10:47:26.224Z,23.50
2017-06-27T10:49:53.779Z,23.54
2017-06-27T10:52:21.291Z,23.62
2017-06-27T10:54:48.856Z,23.61
2017-06-27T10:57:16.380Z,23.51
2017-06-27T10:59:43.935Z,23.52
2017-06-27T11:02:11.488Z,23.48
2017-06-27T11:04:39.011Z,23.50
2017-06-27T11:07:06.585Z,23.48
2017-06-27T11:09:34.114Z,23.54
2017-06-27T11:12:01.648Z,23.60
2017-06-27T11:14:29.165Z,23.77
2017-06-27T11:16:56.711Z,23.73
2017-06-27T11:19:24.211Z,23.82
2017-06-27T11:21:51.792Z,23.71
2017-06-27T11:24:19.307Z,23.80
2017-06-27T11:26:46.819Z,23.68
2017-06-27T11:29:14.369Z,23.73
2017-06-27T11:31:42.282Z,23.67
2017-06-27T11:34:09.795Z,23.83
2017-06-27T11:36:37.330Z,23.67
2017-06-27T11:39:04.888Z,23.67
2017-06-27T11:41:32.411Z,23.78
2017-06-27T11:43:59.969Z,23.61
2017-06-27T11:46:27.484Z,23.53
2017-06-27T11:48:55.098Z,23.29
2017-06-27T11:51:22.818Z,23.24
2017-06-27T11:53:50.371Z,23.13
2017-06-27T11:56:17.975Z,23.07
2017-06-27T11:58:45.550Z,23.04
2017-06-27T12:01:25.020Z,23.17
2017-06-27T12:04:04.268Z,23.07
2017-06-27T12:06:34.751Z,23.03
2017-06-27T12:11:53.871Z,22.96
2017-06-27T12:14:21.692Z,22.93
2017-06-27T12:16:49.247Z,22.93
2017-06-27T12:19:16.798Z,23.01
2017-06-27T12:21:44.459Z,23.09
2017-06-27T12:24:12.015Z,23.12
2017-06-27T12:26:39.574Z,23.21
2017-06-27T12:29:07.128Z,23.03
2017-06-27T12:31:34.703Z,23.04
2017-06-27T12:34:02.319Z,23.13
2017-06-27T12:36:29.852Z,23.29
2017-06-27T12:38:57.420Z,23.44
2017-06-27T12:41:25.003Z,23.40
2017-06-27T12:43:52.544Z,23.40
2017-06-27T12:46:20.122Z,23.34
2017-06-27T12:48:47.767Z,23.58
2017-06-27T12:51:15.323Z,23.67
2017-06-27T12:53:42.912Z,23.80
2017-06-27T12:56:10.457Z,23.85
2017-06-27T12:58:38.032Z,23.93
2017-06-27T13:01:05.548Z,23.72
2017-06-27T13:03:33.075Z,23.65
2017-06-27T13:06:00.639Z,23.84
2017-06-27T13:08:28.144Z,23.78
2017-06-27T13:10:55.688Z,23.98
2017-06-27T13:13:23.250Z,23.95
2017-06-27T13:15:50.775Z,23.92
2017-06-27T13:18:18.322Z,23.86
2017-06-27T13:20:45.850Z,23.98
2017-06-27T13:23:13.450Z,24.03
2017-06-27T13:25:40.955Z,23.97
2017-06-27T13:28:08.463Z,24.09
2017-06-27T13:30:36.004Z,24.17
2017-06-27T13:33:03.539Z,24.25
2017-06-27T13:35:31.090Z,24.43
2017-06-27T13:37:58.598Z,24.46
2017-06-27T13:40:26.154Z,24.45
2017-06-27T13:42:53.668Z,24.43
2017-06-27T13:45:21.188Z,24.46
2017-06-27T13:47:48.720Z,24.41
2017-06-27T13:50:16.230Z,24.48
2017-06-27T13:52:43.784Z,24.47
2017-06-27T13:55:11.296Z,24.42
2017-06-27T13:57:38.835Z,24.54
2017-06-27T14:00:06.361Z,24.57
2017-06-27T14:02:33.914Z,24.66
2017-06-27T14:05:01.442Z,24.59
2017-06-27T14:07:28.973Z,24.76
2017-06-27T14:09:56.527Z,24.61
2017-06-27T14:12:24.054Z,24.65
2017-06-27T14:14:51.678Z,24.61
2017-06-27T14:17:19.230Z,24.46
2017-06-27T14:19:46.837Z,24.75
2017-06-27T14:22:14.355Z,24.50
2017-06-27T14:24:41.943Z,24.43
2017-06-27T14:27:09.470Z,24.35
2017-06-27T14:29:36.975Z,24.42
2017-06-27T14:32:04.522Z,24.41
2017-06-27T14:34:32.051Z,24.31
2017-06-27T14:36:59.603Z,24.35
2017-06-27T14:39:27.113Z,24.28
2017-06-27T14:41:54.672Z,24.33
2017-06-27T14:44:22.187Z,24.23
2017-06-27T14:46:49.710Z,24.18
2017-06-27T14:49:17.247Z,24.16
2017-06-27T14:51:44.767Z,24.23
2017-06-27T14:54:12.332Z,24.29
2017-06-27T14:56:39.864Z,24.26
2017-06-27T14:59:07.375Z,24.21
2017-06-27T15:01:34.922Z,24.26
2017-06-27T15:04:02.450Z,24.22
2017-06-27T15:06:30.003Z,24.19
2017-06-27T15:08:57.506Z,24.15
2017-06-27T15:11:25.058Z,24.12
2017-06-27T15:13:52.675Z,24.10
2017-06-27T15:16:20.204Z,24.07
2017-06-27T15:18:47.854Z,24.04
2017-06-27T15:21:15.414Z,24.04
2017-06-27T15:23:42.948Z,24.05
2017-06-27T15:26:10.506Z,24.04
2017-06-27T15:28:38.033Z,24.11
2017-06-27T15:31:05.621Z,24.04
2017-06-27T15:33:33.147Z,24.00
2017-06-27T15:36:00.719Z,23.93
2017-06-27T15:38:28.239Z,24.05
2017-06-27T15:40:55.811Z,24.01
2017-06-27T15:43:23.377Z,24.10
2017-06-27T15:45:50.895Z,24.16
2017-06-27T15:48:18.603Z,24.14
2017-06-27T15:50:46.114Z,24.13
2017-06-27T15:53:13.620Z,24.22
2017-06-27T15:55:41.173Z,24.20
2017-06-27T15:58:08.712Z,24.35
2017-06-27T16:00:36.290Z,24.23
2017-06-27T16:03:03.815Z,24.32
2017-06-27T16:05:31.383Z,24.22
2017-06-27T16:07:58.905Z,24.40
2017-06-27T16:10:26.525Z,24.53
2017-06-27T16:12:54.054Z,24.59
2017-06-27T16:15:21.618Z,24.64
2017-06-27T16:17:49.310Z,24.61
2017-06-27T16:20:17.072Z,24.72
2017-06-27T16:22:44.583Z,24.67
2017-06-27T16:25:12.088Z,24.74
2017-06-27T16:27:39.647Z,24.73
2017-06-27T16:30:07.161Z,24.74
2017-06-27T16:32:34.710Z,24.94
2017-06-27T16:35:02.244Z,24.93
2017-06-27T16:37:29.808Z,25.07
2017-06-27T16:39:57.447Z,24.90
2017-06-27T16:42:25.004Z,24.90
2017-06-27T16:44:52.539Z,24.82
2017-06-27T16:47:20.319Z,24.87
2017-06-27T16:49:47.816Z,24.76
2017-06-27T16:52:15.321Z,24.70
2017-06-27T16:54:42.960Z,24.69
2017-06-27T16:57:10.470Z,24.82
2017-06-27T16:59:38.043Z,24.90
2017-06-27T17:02:05.565Z,24.79
2017-06-27T17:04:33.123Z,24.69
2017-06-27T17:07:00.631Z,24.65
2017-06-27T17:09:28.232Z,24.59
2017-06-27T17:11:55.787Z,24.61
2017-06-27T17:14:23.455Z,24.52
2017-06-27T17:16:51.136Z,24.54
2017-06-27T17:19:18.655Z,24.45
2017-06-27T17:21:46.230Z,24.46
2017-06-27T17:24:13.909Z,24.51
2017-06-27T17:26:41.526Z,24.35
2017-06-27T17:29:09.305Z,24.44
2017-06-27T17:31:36.852Z,24.56
2017-06-27T17:34:04.655Z,24.36
2017-06-27T17:36:32.166Z,24.30
2017-06-27T17:38:59.684Z,24.33
2017-06-27T17:41:27.268Z,24.44
2017-06-27T17:43:55.307Z,24.42
2017-06-27T17:46:22.898Z,24.44
2017-06-27T17:48:50.422Z,24.27
2017-06-27T17:51:18.287Z,24.29
2017-06-27T17:53:45.866Z,24.17
2017-06-27T17:56:13.398Z,24.11
2017-06-27T17:58:40.963Z,24.24
2017-06-27T18:01:08.471Z,24.05
2017-06-27T18:03:36.031Z,24.12
2017-06-27T18:06:03.540Z,24.18
2017-06-27T18:08:31.094Z,24.17
2017-06-27T18:10:58.602Z,24.27
2017-06-27T18:13:26.315Z,24.22
2017-06-27T18:15:53.828Z,24.24
2017-06-27T18:18:21.411Z,24.34
2017-06-27T18:20:48.961Z,24.21
2017-06-27T18:23:16.536Z,24.18
2017-06-27T18:25:44.106Z,24.07
2017-06-27T18:28:11.617Z,24.14
2017-06-27T18:30:39.280Z,23.93
2017-06-27T18:33:06.820Z,24.04
2017-06-27T18:35:34.388Z,23.94
2017-06-27T18:38:01.963Z,23.80
2017-06-27T18:40:29.496Z,23.84
2017-06-27T18:42:57.749Z,23.93
2017-06-27T18:45:25.302Z,23.93
2017-06-27T18:47:52.883Z,23.99
2017-06-27T18:50:20.525Z,24.22
2017-06-27T18:52:48.045Z,24.19
2017-06-27T18:55:15.603Z,24.04
2017-06-27T18:57:43.145Z,24.05
2017-06-27T19:00:10.704Z,24.11
2017-06-27T19:02:38.232Z,24.08
2017-06-27T19:05:05.828Z,24.08
2017-06-27T19:07:33.450Z,24.09
2017-06-27T19:10:01.008Z,24.11
2017-06-27T19:12:28.660Z,24.02
2017-06-27T19:14:56.183Z,24.01
2017-06-27T19:17:23.770Z,24.02
2017-06-27T19:19:51.313Z,24.01
2017-06-27T19:22:18.895Z,23.96
2017-06-27T19:24:46.427Z,24.01
2017-06-27T19:27:14.113Z,24.01
2017-06-27T19:29:41.632Z,23.93
2017-06-27T19:32:09.154Z,23.82
2017-06-27T19:34:36.724Z,23.96
2017-06-27T19:37:04.355Z,23.89
2017-06-27T19:39:32.016Z,23.99
2017-06-27T19:41:59.618Z,23.88
2017-06-27T19:44:27.189Z,23.88
2017-06-27T19:46:54.775Z,23.87
2017-06-27T19:49:22.455Z,23.71
2017-06-27T19:51:49.973Z,23.54
2017-06-27T19:54:17.681Z,23.39
2017-06-27T19:56:45.193Z,23.44
2017-06-27T19:59:12.785Z,23.52
2017-06-27T20:01:40.326Z,23.54
2017-06-27T20:04:07.835Z,23.33
2017-06-27T20:06:35.384Z,23.17
2017-06-27T20:09:02.926Z,23.27
2017-06-27T20:11:30.674Z,23.22
2017-06-27T20:13:58.213Z,23.25
2017-06-27T20:16:25.784Z,23.38
2017-06-27T20:18:53.515Z,23.16
2017-06-27T20:21:21.040Z,23.12
2017-06-27T20:23:48.631Z,23.18
2017-06-27T20:26:16.138Z,23.30
2017-06-27T20:28:43.796Z,23.38
2017-06-27T20:31:11.332Z,23.37
2017-06-27T20:33:39.007Z,23.34
2017-06-27T20:36:06.612Z,23.32
2017-06-27T20:38:34.159Z,23.27
2017-06-27T20:41:01.732Z,23.35
2017-06-27T20:43:29.264Z,23.30
2017-06-27T20:45:56.831Z,23.31
2017-06-27T20:48:24.349Z,23.19
2017-06-27T20:50:52.079Z,23.15
2017-06-27T20:53:19.632Z,23.11
2017-06-27T20:55:47.156Z,23.03
2017-06-27T20:58:14.717Z,23.11
2017-06-27T21:00:42.234Z,23.12
2017-06-27T21:03:09.833Z,22.98
2017-06-27T21:05:37.358Z,22.94
2017-06-27T21:08:04.918Z,22.83
2017-06-27T21:10:32.442Z,22.87
2017-06-27T21:13:00.202Z,22.88
2017-06-27T21:15:27.731Z,22.79
2017-06-27T21:17:55.259Z,22.87
2017-06-27T21:20:22.839Z,22.82
2017-06-27T21:22:50.359Z,22.91
2017-06-27T21:25:17.924Z,22.82
2017-06-27T21:27:45.448Z,22.80
2017-06-27T21:30:13.111Z,22.71
2017-06-27T21:32:40.645Z,22.79
2017-06-27T21:35:08.219Z,22.79
2017-06-27T21:37:35.787Z,22.68
2017-06-27T21:40:03.336Z,22.67
2017-06-27T21:42:30.923Z,22.62
2017-06-27T21:44:58.806Z,22.61
2017-06-27T21:47:26.420Z,22.61
2017-06-27T21:49:53.966Z,22.54
2017-06-27T21:52:21.551Z,22.53
2017-06-27T21:54:49.107Z,22.49
2017-06-27T21:57:16.684Z,22.47
2017-06-27T21:59:44.249Z,22.45
2017-06-27T22:02:11.803Z,22.38
2017-06-27T22:04:39.392Z,22.42
2017-06-27T22:07:06.903Z,22.34
2017-06-27T22:09:34.456Z,22.26
2017-06-27T22:12:01.999Z,22.27
2017-06-27T22:14:29.572Z,22.32
2017-06-27T22:16:57.115Z,22.32
2017-06-27T22:19:24.894Z,22.24
2017-06-27T22:21:52.481Z,22.19
2017-06-27T22:24:20.072Z,22.22
2017-06-27T22:26:47.703Z,22.24
2017-06-27T22:29:15.288Z,22.28
2017-06-27T22:31:42.863Z,22.29
2017-06-27T22:34:10.452Z,22.25
2017-06-27T22:36:38.023Z,22.18
2017-06-27T22:39:05.531Z,22.12
2017-06-27T22:41:33.131Z,22.10
2017-06-27T22:44:00.647Z,22.12
2017-06-27T22:46:28.347Z,22.11
2017-06-27T22:48:55.859Z,22.13
2017-06-27T22:51:23.374Z,22.02
2017-06-27T22:53:50.937Z,21.93
2017-06-27T22:56:18.467Z,21.86
2017-06-27T22:58:46.014Z,21.93
2017-06-27T23:01:13.567Z,22.00
2017-06-27T23:03:41.144Z,21.98
2017-06-27T23:06:08.654Z,21.97
2017-06-27T23:08:36.199Z,22.00
2017-06-27T23:11:03.755Z,21.93
2017-06-27T23:13:31.267Z,21.83
2017-06-27T23:15:58.799Z,21.85
2017-06-27T23:18:26.311Z,21.81
2017-06-27T23:20:54.255Z,21.83
2017-06-27T23:23:21.780Z,21.86
2017-06-27T23:25:49.429Z,21.87
2017-06-27T23:28:16.971Z,21.81
2017-06-27T23:30:44.483Z,21.77
2017-06-27T23:33:12.047Z,21.78
2017-06-27T23:35:39.559Z,21.80
2017-06-27T23:38:07.133Z,21.76
2017-06-27T23:40:34.667Z,21.73
2017-06-27T23:43:02.211Z,21.83
2017-06-27T23:45:29.762Z,21.78
2017-06-27T23:47:57.283Z,21.81
2017-06-27T23:50:24.845Z,21.77
2017-06-27T23:52:52.359Z,21.76
2017-06-27T23:55:19.949Z,21.77
2017-06-27T23:57:47.471Z,21.80
